createdAt,value
2022-11-16T00:00:14.353Z,9
2022-11-16T00:01:14.356Z,6
2022-11-16T00:02:14.428Z,6
2022-11-16T00:03:14.348Z,7
2022-11-16T00:04:14.355Z,7
2022-11-16T00:05:14.363Z,5
2022-11-16T00:07:14.442Z,7
2022-11-16T00:08:14.352Z,7
2022-11-16T00:09:14.368Z,6
2022-11-16T00:10:14.352Z,8
2022-11-16T00:11:14.368Z,6
2022-11-16T00:12:14.365Z,6
2022-11-16T00:13:14.364Z,6
2022-11-16T00:14:14.351Z,7
2022-11-16T00:15:14.344Z,7
2022-11-16T00:16:14.348Z,6
2022-11-16T00:17:14.363Z,6
2022-11-16T00:18:14.363Z,7
2022-11-16T00:19:14.360Z,7
2022-11-16T00:20:14.362Z,7
2022-11-16T00:21:14.354Z,7
2022-11-16T00:22:14.363Z,7
2022-11-16T00:23:14.363Z,7
2022-11-16T00:24:14.356Z,6
2022-11-16T00:26:14.360Z,7
2022-11-16T00:27:14.359Z,7
2022-11-16T00:28:14.388Z,6
2022-11-16T00:29:14.357Z,6
2022-11-16T00:30:14.359Z,6
2022-11-16T00:31:14.350Z,6
2022-11-16T00:32:14.369Z,9
2022-11-16T00:33:14.371Z,8
2022-11-16T00:34:14.384Z,7
2022-11-16T00:35:14.361Z,8
2022-11-16T00:36:14.351Z,5
2022-11-16T00:37:14.364Z,7
2022-11-16T00:38:14.353Z,7
2022-11-16T00:39:14.350Z,9
2022-11-16T00:40:14.360Z,7
2022-11-16T00:41:14.358Z,7
2022-11-16T00:42:14.346Z,7
2022-11-16T00:43:14.366Z,7
2022-11-16T00:44:14.366Z,7
2022-11-16T00:45:14.375Z,7
2022-11-16T00:46:14.352Z,7
2022-11-16T00:47:14.437Z,7
2022-11-16T00:48:14.352Z,5
2022-11-16T00:49:14.371Z,7
2022-11-16T00:50:14.353Z,6
2022-11-16T00:51:14.350Z,7
2022-11-16T00:52:14.420Z,7
2022-11-16T00:53:14.349Z,7
2022-11-16T00:54:14.353Z,6
2022-11-16T00:55:14.363Z,8
2022-11-16T00:56:14.359Z,7
2022-11-16T00:57:14.370Z,7
2022-11-16T00:58:14.366Z,6
2022-11-16T00:59:14.390Z,7
2022-11-16T01:00:14.352Z,8
2022-11-16T01:01:14.390Z,8
2022-11-16T01:02:14.343Z,8
2022-11-16T01:03:14.366Z,8
2022-11-16T01:04:14.355Z,6
2022-11-16T01:05:14.359Z,8
2022-11-16T01:06:14.364Z,6
2022-11-16T01:07:14.435Z,8
2022-11-16T01:09:14.357Z,8
2022-11-16T01:10:14.371Z,6
2022-11-16T01:11:14.359Z,7
2022-11-16T01:12:14.370Z,7
2022-11-16T01:13:14.363Z,7
2022-11-16T01:14:14.402Z,7
2022-11-16T01:15:14.357Z,7
2022-11-16T01:16:14.362Z,7
2022-11-16T01:17:14.392Z,8
2022-11-16T01:18:14.352Z,8
2022-11-16T01:19:14.427Z,7
2022-11-16T01:20:14.371Z,7
2022-11-16T01:21:14.347Z,8
2022-11-16T01:22:14.348Z,7
2022-11-16T01:23:14.361Z,7
2022-11-16T01:24:14.399Z,7
2022-11-16T01:25:14.365Z,7
2022-11-16T01:26:14.365Z,7
2022-11-16T01:27:14.374Z,7
2022-11-16T01:28:14.369Z,7
2022-11-16T01:29:14.362Z,8
2022-11-16T01:30:14.383Z,7
2022-11-16T01:31:14.351Z,7
2022-11-16T01:32:14.371Z,6
2022-11-16T01:33:14.358Z,8
2022-11-16T01:34:14.436Z,8
2022-11-16T01:35:14.385Z,8
2022-11-16T01:36:14.710Z,8
2022-11-16T01:37:14.359Z,8
2022-11-16T01:38:14.430Z,9
2022-11-16T01:39:14.381Z,7
2022-11-16T01:40:14.366Z,7
2022-11-16T01:41:14.358Z,7
2022-11-16T01:42:14.377Z,7
2022-11-16T01:43:14.392Z,6
2022-11-16T01:44:14.353Z,6
2022-11-16T01:45:14.370Z,6
2022-11-16T01:46:14.358Z,6
2022-11-16T01:47:14.389Z,6
2022-11-16T01:48:14.462Z,8
2022-11-16T01:49:14.356Z,7
2022-11-16T01:50:14.368Z,7
2022-11-16T01:51:14.368Z,8
2022-11-16T01:52:14.369Z,7
2022-11-16T01:53:14.356Z,6
2022-11-16T01:54:14.363Z,6
2022-11-16T01:55:14.364Z,5
2022-11-16T01:56:14.359Z,8
2022-11-16T01:57:14.370Z,8
2022-11-16T01:58:14.372Z,7
2022-11-16T01:59:14.368Z,6
2022-11-16T02:00:14.414Z,7
2022-11-16T02:01:14.449Z,7
2022-11-16T02:02:14.366Z,7
2022-11-16T02:03:14.371Z,7
2022-11-16T02:04:14.368Z,6
2022-11-16T02:05:14.372Z,6
2022-11-16T02:06:14.378Z,6
2022-11-16T02:07:14.413Z,6
2022-11-16T02:08:14.371Z,8
2022-11-16T02:09:14.353Z,8
2022-11-16T02:10:14.364Z,6
2022-11-16T02:11:14.356Z,7
2022-11-16T02:12:14.358Z,7
2022-11-16T02:13:14.368Z,6
2022-11-16T02:14:14.371Z,6
2022-11-16T02:15:14.374Z,6
2022-11-16T02:16:14.353Z,6
2022-11-16T02:17:14.426Z,8
2022-11-16T02:18:14.372Z,8
2022-11-16T02:19:14.363Z,7
2022-11-16T02:20:14.370Z,7
2022-11-16T02:21:14.358Z,5
2022-11-16T02:22:14.371Z,6
2022-11-16T02:23:14.359Z,7
2022-11-16T02:24:14.380Z,7
2022-11-16T02:25:14.365Z,6
2022-11-16T02:26:14.363Z,5
2022-11-16T02:27:14.370Z,8
2022-11-16T02:28:14.380Z,8
2022-11-16T02:29:14.412Z,6
2022-11-16T02:30:14.355Z,6
2022-11-16T02:31:14.378Z,6
2022-11-16T02:32:14.389Z,7
2022-11-16T02:33:14.357Z,6
2022-11-16T02:34:14.361Z,5
2022-11-16T02:35:14.364Z,5
2022-11-16T02:36:14.359Z,5
2022-11-16T02:37:14.456Z,5
2022-11-16T02:38:14.374Z,5
2022-11-16T02:39:14.380Z,5
2022-11-16T02:40:14.373Z,4
2022-11-16T02:41:14.405Z,4
2022-11-16T02:42:14.375Z,5
2022-11-16T02:43:14.358Z,5
2022-11-16T02:44:14.363Z,5
2022-11-16T02:45:14.371Z,5
2022-11-16T02:46:14.423Z,5
2022-11-16T02:47:14.362Z,5
2022-11-16T02:48:14.360Z,6
2022-11-16T02:49:14.371Z,5
2022-11-16T02:50:14.372Z,5
2022-11-16T02:51:14.352Z,5
2022-11-16T02:52:14.372Z,4
2022-11-16T02:53:14.385Z,4
2022-11-16T02:54:14.367Z,4
2022-11-16T02:55:14.358Z,4
2022-11-16T02:56:14.362Z,3
2022-11-16T02:57:14.371Z,4
2022-11-16T02:58:14.365Z,4
2022-11-16T02:59:17.636Z,4
2022-11-16T03:00:14.357Z,4
2022-11-16T03:01:14.406Z,4
2022-11-16T03:02:14.355Z,4
2022-11-16T03:03:14.388Z,4
2022-11-16T03:04:14.368Z,4
2022-11-16T03:05:14.364Z,2
2022-11-16T03:06:14.367Z,3
2022-11-16T03:07:14.405Z,2
2022-11-16T03:08:14.454Z,4
2022-11-16T03:09:14.371Z,4
2022-11-16T03:10:14.370Z,2
2022-11-16T03:11:14.361Z,2
2022-11-16T03:12:14.365Z,2
2022-11-16T03:13:14.372Z,2
2022-11-16T03:14:14.358Z,3
2022-11-16T03:15:14.381Z,2
2022-11-16T03:16:14.365Z,3
2022-11-16T03:17:14.368Z,3
2022-11-16T03:18:14.386Z,2
2022-11-16T03:19:14.383Z,3
2022-11-16T03:20:14.367Z,1
2022-11-16T03:21:14.371Z,2
2022-11-16T03:22:14.371Z,2
2022-11-16T03:23:14.371Z,2
2022-11-16T03:24:14.383Z,2
2022-11-16T03:25:14.378Z,2
2022-11-16T03:26:14.366Z,2
2022-11-16T03:27:14.368Z,1
2022-11-16T03:28:14.510Z,1
2022-11-16T03:29:14.369Z,3
2022-11-16T03:30:14.372Z,3
2022-11-16T03:31:14.386Z,2
2022-11-16T03:32:14.385Z,2
2022-11-16T03:33:14.365Z,1
2022-11-16T03:34:14.391Z,2
2022-11-16T03:35:14.427Z,2
2022-11-16T03:36:14.373Z,2
2022-11-16T03:37:14.370Z,1
2022-11-16T03:38:14.398Z,2
2022-11-16T03:39:14.370Z,1
2022-11-16T03:40:14.375Z,1
2022-11-16T03:42:14.444Z,2
2022-11-16T03:43:14.387Z,2
2022-11-16T03:45:14.395Z,2
2022-11-16T03:46:14.371Z,1
2022-11-16T03:47:14.373Z,1
2022-11-16T03:48:14.377Z,1
2022-11-16T03:49:14.366Z,3
2022-11-16T03:50:14.441Z,2
2022-11-16T03:51:14.391Z,2
2022-11-16T03:52:14.371Z,2
2022-11-16T03:53:14.383Z,1
2022-11-16T03:54:14.371Z,2
2022-11-16T03:55:14.384Z,1
2022-11-16T03:56:14.383Z,1
2022-11-16T03:57:14.370Z,1
2022-11-16T03:58:14.370Z,1
2022-11-16T03:59:14.410Z,2
2022-11-16T04:00:14.376Z,2
2022-11-16T04:01:14.447Z,1
2022-11-16T04:02:14.372Z,1
2022-11-16T04:03:14.379Z,2
2022-11-16T04:04:14.474Z,2
2022-11-16T04:05:14.402Z,1
2022-11-16T04:06:14.364Z,1
2022-11-16T04:07:14.438Z,1
2022-11-16T04:08:14.371Z,2
2022-11-16T04:09:14.378Z,1
2022-11-16T04:10:14.367Z,1
2022-11-16T04:11:14.374Z,2
2022-11-16T04:12:14.385Z,1
2022-11-16T04:13:14.392Z,1
2022-11-16T04:14:14.367Z,1
2022-11-16T04:15:14.376Z,1
2022-11-16T04:16:14.434Z,2
2022-11-16T04:17:14.387Z,2
2022-11-16T04:18:14.376Z,2
2022-11-16T04:19:14.396Z,2
2022-11-16T04:20:14.383Z,2
2022-11-16T04:21:14.386Z,2
2022-11-16T04:22:14.505Z,2
2022-11-16T04:23:14.391Z,2
2022-11-16T04:24:14.377Z,2
2022-11-16T04:25:14.385Z,2
2022-11-16T04:26:14.391Z,2
2022-11-16T04:27:14.367Z,2
2022-11-16T04:28:14.377Z,1
2022-11-16T04:29:14.376Z,2
2022-11-16T04:30:14.373Z,2
2022-11-16T04:31:14.381Z,2
2022-11-16T04:32:14.382Z,1
2022-11-16T04:33:14.429Z,2
2022-11-16T04:34:14.369Z,2
2022-11-16T04:35:14.385Z,1
2022-11-16T04:36:20.472Z,1
2022-11-16T04:37:14.385Z,1
2022-11-16T04:38:14.384Z,1
2022-11-16T04:39:14.919Z,1
2022-11-16T04:40:14.400Z,1
2022-11-16T04:41:14.392Z,2
2022-11-16T04:42:14.381Z,2
2022-11-16T04:43:14.407Z,3
2022-11-16T04:44:14.375Z,3
2022-11-16T04:45:14.377Z,2
2022-11-16T04:46:14.374Z,2
2022-11-16T04:47:14.392Z,2
2022-11-16T04:48:14.373Z,1
2022-11-16T04:49:14.386Z,2
2022-11-16T04:50:14.379Z,2
2022-11-16T04:51:14.397Z,2
2022-11-16T04:52:14.397Z,2
2022-11-16T04:53:14.385Z,3
2022-11-16T04:54:14.378Z,2
2022-11-16T04:55:14.387Z,2
2022-11-16T04:56:14.384Z,2
2022-11-16T04:57:14.387Z,2
2022-11-16T04:58:14.405Z,1
2022-11-16T04:59:14.388Z,1
2022-11-16T05:00:14.386Z,5
2022-11-16T05:01:14.426Z,2
2022-11-16T05:02:14.434Z,2
2022-11-16T05:03:14.383Z,2
2022-11-16T05:04:14.384Z,2
2022-11-16T05:05:14.375Z,2
2022-11-16T05:06:14.365Z,2
2022-11-16T05:07:14.452Z,3
2022-11-16T05:08:14.386Z,3
2022-11-16T05:09:14.424Z,2
2022-11-16T05:10:14.377Z,2
2022-11-16T05:11:14.420Z,2
2022-11-16T05:12:14.447Z,4
2022-11-16T05:13:14.381Z,2
2022-11-16T05:14:14.455Z,1
2022-11-16T05:15:14.411Z,1
2022-11-16T05:16:14.393Z,2
2022-11-16T05:17:14.382Z,2
2022-11-16T05:18:14.384Z,2
2022-11-16T05:19:14.396Z,2
2022-11-16T05:20:14.393Z,2
2022-11-16T05:21:14.378Z,2
2022-11-16T05:22:14.385Z,2
2022-11-16T05:23:14.376Z,2
2022-11-16T05:24:14.381Z,3
2022-11-16T05:25:14.373Z,3
2022-11-16T05:26:14.381Z,3
2022-11-16T05:27:14.385Z,2
2022-11-16T05:28:14.415Z,3
2022-11-16T05:29:14.378Z,3
2022-11-16T05:30:14.417Z,3
2022-11-16T05:31:14.465Z,3
2022-11-16T05:32:14.400Z,2
2022-11-16T05:33:14.388Z,2
2022-11-16T05:34:14.381Z,3
2022-11-16T05:35:14.389Z,2
2022-11-16T05:36:14.387Z,2
2022-11-16T05:37:14.379Z,2
2022-11-16T05:38:14.401Z,1
2022-11-16T05:39:20.949Z,2
2022-11-16T05:40:14.465Z,2
2022-11-16T05:41:14.376Z,2
2022-11-16T05:42:14.373Z,1
2022-11-16T05:43:14.383Z,2
2022-11-16T05:44:14.379Z,3
2022-11-16T05:45:19.819Z,4
2022-11-16T05:46:14.391Z,2
2022-11-16T05:47:14.389Z,2
2022-11-16T05:48:14.382Z,2
2022-11-16T05:49:14.383Z,3
2022-11-16T05:50:14.388Z,3
2022-11-16T05:51:14.380Z,4
2022-11-16T05:52:14.370Z,4
2022-11-16T05:53:14.380Z,2
2022-11-16T05:54:14.390Z,2
2022-11-16T05:55:14.458Z,2
2022-11-16T05:56:14.504Z,2
2022-11-16T05:57:14.388Z,2
2022-11-16T05:58:14.384Z,3
2022-11-16T05:59:16.620Z,6
2022-11-16T06:00:14.379Z,2
2022-11-16T06:01:14.385Z,3
2022-11-16T06:02:14.398Z,2
2022-11-16T06:03:14.447Z,2
2022-11-16T06:04:14.377Z,3
2022-11-16T06:05:14.394Z,3
2022-11-16T06:06:14.380Z,3
2022-11-16T06:07:14.471Z,3
2022-11-16T06:08:14.390Z,2
2022-11-16T06:09:14.382Z,4
2022-11-16T06:10:14.375Z,2
2022-11-16T06:11:14.393Z,2
2022-11-16T06:12:14.451Z,4
2022-11-16T06:13:14.383Z,4
2022-11-16T06:14:14.389Z,3
2022-11-16T06:15:14.396Z,2
2022-11-16T06:16:14.791Z,2
2022-11-16T06:17:14.398Z,3
2022-11-16T06:18:14.397Z,3
2022-11-16T06:19:14.416Z,3
2022-11-16T06:20:14.386Z,2
2022-11-16T06:21:14.377Z,3
2022-11-16T06:22:14.411Z,3
2022-11-16T06:23:14.390Z,2
2022-11-16T06:24:14.397Z,2
2022-11-16T06:25:14.399Z,2
2022-11-16T06:26:14.430Z,2
2022-11-16T06:27:14.388Z,2
2022-11-16T06:28:14.410Z,3
2022-11-16T06:29:14.458Z,3
2022-11-16T06:30:14.385Z,3
2022-11-16T06:31:14.384Z,3
2022-11-16T06:32:14.394Z,3
2022-11-16T06:33:14.650Z,3
2022-11-16T06:34:14.392Z,5
2022-11-16T06:35:14.382Z,3
2022-11-16T06:36:14.386Z,3
2022-11-16T06:37:14.393Z,3
2022-11-16T06:40:14.381Z,3
2022-11-16T06:41:14.394Z,3
2022-11-16T06:42:14.388Z,2
2022-11-16T06:44:14.380Z,3
2022-11-16T06:45:14.383Z,3
2022-11-16T06:46:14.401Z,4
2022-11-16T06:47:14.416Z,4
2022-11-16T06:48:14.388Z,3
2022-11-16T06:49:14.380Z,3
2022-11-16T06:50:14.403Z,2
2022-11-16T06:51:14.388Z,6
2022-11-16T06:52:14.461Z,3
2022-11-16T06:53:14.388Z,3
2022-11-16T06:54:14.408Z,2
2022-11-16T06:55:14.380Z,2
2022-11-16T06:56:14.404Z,3
2022-11-16T06:57:14.401Z,3
2022-11-16T06:58:14.401Z,4
2022-11-16T06:59:14.392Z,3
2022-11-16T07:00:14.411Z,3
2022-11-16T07:01:14.484Z,3
2022-11-16T07:02:14.489Z,3
2022-11-16T07:03:14.398Z,3
2022-11-16T07:04:14.406Z,3
2022-11-16T07:05:14.425Z,4
2022-11-16T07:06:14.386Z,2
2022-11-16T07:07:14.430Z,3
2022-11-16T07:08:14.401Z,3
2022-11-16T07:09:14.395Z,3
2022-11-16T07:10:14.392Z,3
2022-11-16T07:11:14.409Z,4
2022-11-16T07:12:14.399Z,3
2022-11-16T07:13:14.384Z,3
2022-11-16T07:14:14.391Z,6
2022-11-16T07:15:14.399Z,3
2022-11-16T07:16:14.429Z,3
2022-11-16T07:17:14.470Z,3
2022-11-16T07:18:14.415Z,4
2022-11-16T07:19:14.414Z,4
2022-11-16T07:20:14.403Z,3
2022-11-16T07:21:14.410Z,4
2022-11-16T07:22:14.391Z,3
2022-11-16T07:23:14.485Z,3
2022-11-16T07:24:14.403Z,3
2022-11-16T07:25:14.397Z,4
2022-11-16T07:26:14.388Z,2
2022-11-16T07:27:14.402Z,2
2022-11-16T07:29:14.393Z,3
2022-11-16T07:30:14.383Z,5
2022-11-16T07:31:14.402Z,2
2022-11-16T07:32:14.408Z,7
2022-11-16T07:33:14.456Z,3
2022-11-16T07:34:14.395Z,3
2022-11-16T07:35:14.404Z,4
2022-11-16T07:36:14.408Z,4
2022-11-16T07:37:14.393Z,3
2022-11-16T07:38:17.998Z,3
2022-11-16T07:39:14.467Z,5
2022-11-16T07:40:14.391Z,4
2022-11-16T07:41:14.388Z,4
2022-11-16T07:42:14.389Z,4
2022-11-16T07:43:14.413Z,3
2022-11-16T07:44:14.385Z,4
2022-11-16T07:45:14.396Z,3
2022-11-16T07:47:14.410Z,5
2022-11-16T07:48:14.395Z,5
2022-11-16T07:49:14.664Z,4
2022-11-16T07:50:14.413Z,5
2022-11-16T07:51:14.568Z,5
2022-11-16T07:52:14.389Z,4
2022-11-16T07:53:14.398Z,4
2022-11-16T07:54:14.413Z,5
2022-11-16T07:55:14.462Z,3
2022-11-16T07:56:14.392Z,6
2022-11-16T07:57:14.393Z,6
2022-11-16T07:58:14.393Z,5
2022-11-16T07:59:14.418Z,5
2022-11-16T08:00:14.436Z,6
2022-11-16T08:01:14.397Z,6
2022-11-16T08:02:14.469Z,5
2022-11-16T08:03:14.401Z,5
2022-11-16T08:04:14.433Z,8
2022-11-16T08:05:14.418Z,5
2022-11-16T08:06:14.407Z,6
2022-11-16T08:07:14.521Z,6
2022-11-16T08:08:14.401Z,6
2022-11-16T08:09:14.390Z,5
2022-11-16T08:10:14.486Z,5
2022-11-16T08:11:14.425Z,4
2022-11-16T08:12:14.381Z,4
2022-11-16T08:13:14.391Z,4
2022-11-16T08:14:14.397Z,6
2022-11-16T08:15:14.428Z,6
2022-11-16T08:16:14.386Z,6
2022-11-16T08:17:14.392Z,5
2022-11-16T08:18:14.397Z,4
2022-11-16T08:19:14.403Z,5
2022-11-16T08:20:14.503Z,6
2022-11-16T08:21:14.389Z,5
2022-11-16T08:22:14.404Z,5
2022-11-16T08:23:14.402Z,3
2022-11-16T08:24:14.387Z,3
2022-11-16T08:25:14.394Z,4
2022-11-16T08:26:14.407Z,4
2022-11-16T08:27:14.407Z,4
2022-11-16T08:28:14.393Z,3
2022-11-16T08:29:14.390Z,4
2022-11-16T08:30:14.385Z,3
2022-11-16T08:31:14.415Z,3
2022-11-16T08:32:14.404Z,3
2022-11-16T08:33:14.403Z,3
2022-11-16T08:34:14.404Z,4
2022-11-16T08:35:14.403Z,4
2022-11-16T08:36:14.630Z,6
2022-11-16T08:37:14.404Z,3
2022-11-16T08:38:14.389Z,4
2022-11-16T08:39:14.397Z,7
2022-11-16T08:40:14.403Z,7
2022-11-16T08:41:14.596Z,3
2022-11-16T08:42:14.399Z,3
2022-11-16T08:43:14.407Z,3
2022-11-16T08:44:14.393Z,2
2022-11-16T08:45:14.384Z,6
2022-11-16T08:46:14.396Z,6
2022-11-16T08:47:14.656Z,5
2022-11-16T08:48:14.383Z,5
2022-11-16T08:49:14.389Z,6
2022-11-16T08:50:14.439Z,6
2022-11-16T08:51:19.169Z,3
2022-11-16T08:52:14.406Z,4
2022-11-16T08:53:14.394Z,3
2022-11-16T08:54:14.402Z,3
2022-11-16T08:55:14.410Z,5
2022-11-16T08:56:14.383Z,2
2022-11-16T08:57:14.392Z,4
2022-11-16T08:58:14.404Z,4
2022-11-16T08:59:14.414Z,6
2022-11-16T09:00:14.390Z,4
2022-11-16T09:01:14.456Z,4
2022-11-16T09:02:14.447Z,4
2022-11-16T09:03:14.416Z,4
2022-11-16T09:04:14.404Z,8
2022-11-16T09:05:14.406Z,8
2022-11-16T09:06:14.392Z,4
2022-11-16T09:07:14.501Z,4
2022-11-16T09:08:14.398Z,6
2022-11-16T09:09:14.393Z,6
2022-11-16T09:10:14.391Z,3
2022-11-16T09:11:14.387Z,6
2022-11-16T09:12:14.452Z,4
2022-11-16T09:13:14.398Z,4
2022-11-16T09:14:14.394Z,5
2022-11-16T09:15:14.398Z,3
2022-11-16T09:16:14.400Z,6
2022-11-16T09:17:18.807Z,6
2022-11-16T09:18:14.488Z,3
2022-11-16T09:19:14.414Z,4
2022-11-16T09:20:14.396Z,4
2022-11-16T09:21:14.394Z,5
2022-11-16T09:22:14.532Z,4
2022-11-16T09:23:14.407Z,3
2022-11-16T09:24:14.403Z,3
2022-11-16T09:25:14.402Z,3
2022-11-16T09:26:14.403Z,5
2022-11-16T09:27:14.417Z,4
2022-11-16T09:28:14.402Z,4
2022-11-16T09:29:14.462Z,7
2022-11-16T09:30:14.403Z,7
2022-11-16T09:31:18.823Z,4
2022-11-16T09:32:14.404Z,4
2022-11-16T09:33:14.400Z,4
2022-11-16T09:34:14.402Z,6
2022-11-16T09:35:14.411Z,6
2022-11-16T09:36:14.393Z,4
2022-11-16T09:37:14.417Z,6
2022-11-16T09:38:20.707Z,4
2022-11-16T09:39:30.088Z,4
2022-11-16T09:40:14.389Z,4
2022-11-16T09:41:14.423Z,3
2022-11-16T09:42:14.407Z,5
2022-11-16T09:43:14.419Z,5
2022-11-16T09:44:14.396Z,3
2022-11-16T09:45:14.400Z,3
2022-11-16T09:46:14.407Z,4
2022-11-16T09:47:14.411Z,4
2022-11-16T09:48:14.419Z,6
2022-11-16T09:49:17.696Z,5
2022-11-16T09:50:14.397Z,7
2022-11-16T09:51:14.410Z,4
2022-11-16T09:52:14.409Z,6
2022-11-16T09:53:14.588Z,5
2022-11-16T09:54:14.397Z,5
2022-11-16T09:55:16.188Z,7
2022-11-16T09:56:19.165Z,2
2022-11-16T09:57:14.418Z,4
2022-11-16T09:58:14.402Z,4
2022-11-16T09:59:18.085Z,4
2022-11-16T10:00:14.395Z,4
2022-11-16T10:01:14.448Z,7
2022-11-16T10:02:14.403Z,7
2022-11-16T10:03:14.420Z,4
2022-11-16T10:04:14.402Z,8
2022-11-16T10:05:14.397Z,3
2022-11-16T10:06:14.410Z,3
2022-11-16T10:07:14.465Z,5
2022-11-16T10:08:14.410Z,4
2022-11-16T10:09:14.399Z,4
2022-11-16T10:10:14.409Z,4
2022-11-16T10:11:14.411Z,4
2022-11-16T10:12:14.442Z,4
2022-11-16T10:13:14.401Z,4
2022-11-16T10:14:14.419Z,5
2022-11-16T10:15:14.405Z,6
2022-11-16T10:16:14.410Z,4
2022-11-16T10:17:14.401Z,4
2022-11-16T10:18:14.416Z,4
2022-11-16T10:19:14.399Z,3
2022-11-16T10:20:14.405Z,4
2022-11-16T10:21:14.410Z,4
2022-11-16T10:22:14.409Z,3
2022-11-16T10:23:14.415Z,6
2022-11-16T10:24:14.569Z,5
2022-11-16T10:25:14.412Z,4
2022-11-16T10:26:14.401Z,5
2022-11-16T10:27:16.618Z,6
2022-11-16T10:28:14.403Z,5
2022-11-16T10:29:14.459Z,3
2022-11-16T10:30:14.415Z,3
2022-11-16T10:31:14.406Z,5
2022-11-16T10:32:14.433Z,5
2022-11-16T10:33:14.417Z,6
2022-11-16T10:34:14.408Z,5
2022-11-16T10:35:14.415Z,4
2022-11-16T10:36:14.436Z,4
2022-11-16T10:37:14.444Z,3
2022-11-16T10:39:14.397Z,4
2022-11-16T10:40:14.406Z,4
2022-11-16T10:41:14.407Z,3
2022-11-16T10:42:14.416Z,3
2022-11-16T10:43:14.429Z,4
2022-11-16T10:44:14.418Z,3
2022-11-16T10:45:14.404Z,5
2022-11-16T10:46:14.488Z,4
2022-11-16T10:47:14.418Z,4
2022-11-16T10:48:14.581Z,5
2022-11-16T10:49:14.418Z,4
2022-11-16T10:50:14.401Z,3
2022-11-16T10:51:14.428Z,3
2022-11-16T10:52:14.413Z,3
2022-11-16T10:53:14.410Z,6
2022-11-16T10:54:14.439Z,4
2022-11-16T10:55:14.520Z,4
2022-11-16T10:56:14.402Z,4
2022-11-16T10:57:14.425Z,3
2022-11-16T10:58:14.466Z,4
2022-11-16T10:59:14.404Z,4
2022-11-16T11:00:17.131Z,8
2022-11-16T11:01:14.454Z,6
2022-11-16T11:02:14.417Z,6
2022-11-16T11:03:14.407Z,3
2022-11-16T11:04:14.421Z,6
2022-11-16T11:05:14.461Z,4
2022-11-16T11:06:14.414Z,4
2022-11-16T11:07:14.433Z,3
2022-11-16T11:08:14.410Z,5
2022-11-16T11:09:14.413Z,6
2022-11-16T11:10:14.413Z,6
2022-11-16T11:11:14.429Z,6
2022-11-16T11:12:14.411Z,4
2022-11-16T11:13:14.409Z,3
2022-11-16T11:14:14.405Z,3
2022-11-16T11:15:14.425Z,3
2022-11-16T11:16:14.428Z,4
2022-11-16T11:17:14.410Z,4
2022-11-16T11:18:14.407Z,5
2022-11-16T11:19:14.418Z,4
2022-11-16T11:20:14.415Z,5
2022-11-16T11:21:14.411Z,5
2022-11-16T11:22:14.414Z,7
2022-11-16T11:23:14.416Z,4
2022-11-16T11:24:42.816Z,3
2022-11-16T11:25:14.407Z,3
2022-11-16T11:26:14.483Z,3
2022-11-16T11:27:14.417Z,4
2022-11-16T11:28:14.407Z,6
2022-11-16T11:29:14.406Z,6
2022-11-16T11:30:14.424Z,4
2022-11-16T11:31:14.414Z,4
2022-11-16T11:32:18.035Z,5
2022-11-16T11:33:14.413Z,5
2022-11-16T11:34:14.483Z,4
2022-11-16T11:35:14.416Z,4
2022-11-16T11:36:14.403Z,7
2022-11-16T11:37:14.423Z,6
2022-11-16T11:38:14.416Z,3
2022-11-16T11:39:14.436Z,5
2022-11-16T11:40:14.440Z,3
2022-11-16T11:41:14.422Z,3
2022-11-16T11:42:14.417Z,2
2022-11-16T11:45:14.423Z,5
2022-11-16T11:46:14.412Z,4
2022-11-16T11:48:14.426Z,6
2022-11-16T11:49:14.415Z,2
2022-11-16T11:51:14.415Z,4
2022-11-16T11:52:14.445Z,4
2022-11-16T11:53:14.433Z,3
2022-11-16T11:54:14.421Z,4
2022-11-16T11:55:14.409Z,6
2022-11-16T11:56:14.411Z,6
2022-11-16T11:57:14.542Z,4
2022-11-16T11:58:14.445Z,4
2022-11-16T11:59:14.410Z,4
2022-11-16T12:00:14.503Z,3
2022-11-16T12:01:14.429Z,5
2022-11-16T12:02:14.414Z,3
2022-11-16T12:03:14.445Z,4
2022-11-16T12:04:14.418Z,4
2022-11-16T12:05:14.427Z,4
2022-11-16T12:06:14.462Z,2
2022-11-16T12:07:14.510Z,2
2022-11-16T12:08:14.426Z,5
2022-11-16T12:09:14.436Z,5
2022-11-16T12:10:14.419Z,3
2022-11-16T12:11:14.424Z,3
2022-11-16T12:12:14.986Z,2
2022-11-16T12:14:14.435Z,4
2022-11-16T12:15:14.415Z,4
2022-11-16T12:16:14.439Z,4
2022-11-16T12:17:14.424Z,5
2022-11-16T12:18:14.423Z,4
2022-11-16T12:19:14.444Z,4
2022-11-16T12:20:14.437Z,5
2022-11-16T12:21:14.430Z,4
2022-11-16T12:22:14.419Z,3
2022-11-16T12:23:14.421Z,5
2022-11-16T12:24:14.427Z,3
2022-11-16T12:25:14.420Z,2
2022-11-16T12:26:14.426Z,2
2022-11-16T12:27:14.428Z,4
2022-11-16T12:28:14.449Z,3
2022-11-16T12:29:14.413Z,3
2022-11-16T12:30:14.413Z,3
2022-11-16T12:31:14.421Z,4
2022-11-16T12:32:14.424Z,4
2022-11-16T12:33:14.420Z,3
2022-11-16T12:34:14.428Z,3
2022-11-16T12:35:14.420Z,3
2022-11-16T12:36:14.414Z,3
2022-11-16T12:37:14.428Z,3
2022-11-16T12:38:14.431Z,4
2022-11-16T12:39:14.438Z,2
2022-11-16T12:40:14.431Z,3
2022-11-16T12:41:14.431Z,5
2022-11-16T12:42:14.439Z,4
2022-11-16T12:43:14.413Z,2
2022-11-16T12:44:14.411Z,3
2022-11-16T12:45:14.526Z,3
2022-11-16T12:46:14.435Z,1
2022-11-16T12:47:14.469Z,4
2022-11-16T12:48:14.435Z,5
2022-11-16T12:49:14.439Z,5
2022-11-16T12:50:14.433Z,4
2022-11-16T12:51:14.418Z,2
2022-11-16T12:52:14.420Z,2
2022-11-16T12:53:14.426Z,2
2022-11-16T12:54:14.438Z,2
2022-11-16T12:55:27.485Z,3
2022-11-16T12:56:14.421Z,2
2022-11-16T12:57:14.435Z,2
2022-11-16T12:58:14.445Z,2
2022-11-16T12:59:14.506Z,4
2022-11-16T13:00:14.919Z,4
2022-11-16T13:01:14.500Z,5
2022-11-16T13:02:14.425Z,5
2022-11-16T13:03:14.426Z,3
2022-11-16T13:04:14.429Z,3
2022-11-16T13:05:14.428Z,2
2022-11-16T13:06:14.423Z,3
2022-11-16T13:07:14.470Z,2
2022-11-16T13:08:14.427Z,2
2022-11-16T13:10:14.432Z,1
2022-11-16T13:11:14.433Z,2
2022-11-16T13:12:14.449Z,2
2022-11-16T13:13:35.367Z,2
2022-11-16T13:14:14.435Z,2
2022-11-16T13:15:14.426Z,3
2022-11-16T13:16:14.423Z,2
2022-11-16T13:17:14.440Z,4
2022-11-16T13:18:14.419Z,3
2022-11-16T13:19:14.423Z,3
2022-11-16T13:20:15.256Z,3
2022-11-16T13:21:14.431Z,3
2022-11-16T13:22:14.427Z,2
2022-11-16T13:23:14.432Z,2
2022-11-16T13:24:14.441Z,2
2022-11-16T13:25:14.427Z,3
2022-11-16T13:26:14.434Z,4
2022-11-16T13:27:14.442Z,4
2022-11-16T13:28:14.425Z,2
2022-11-16T13:29:14.426Z,2
2022-11-16T13:30:14.504Z,4
2022-11-16T13:31:14.436Z,4
2022-11-16T13:32:14.428Z,2
2022-11-16T13:33:14.428Z,3
2022-11-16T13:34:14.434Z,1
2022-11-16T13:35:14.425Z,2
2022-11-16T13:36:14.431Z,3
2022-11-16T13:37:14.508Z,2
2022-11-16T13:38:14.433Z,2
2022-11-16T13:39:20.327Z,2
2022-11-16T13:40:14.464Z,3
2022-11-16T13:41:14.441Z,2
2022-11-16T13:42:14.446Z,2
2022-11-16T13:43:14.438Z,3
2022-11-16T13:44:14.716Z,2
2022-11-16T13:45:14.443Z,3
2022-11-16T13:46:40.595Z,3
2022-11-16T13:47:14.427Z,3
2022-11-16T13:48:14.452Z,3
2022-11-16T13:49:14.445Z,3
2022-11-16T13:50:14.436Z,3
2022-11-16T13:51:14.420Z,2
2022-11-16T13:52:23.702Z,2
2022-11-16T13:55:14.428Z,4
2022-11-16T13:56:14.430Z,3
2022-11-16T13:57:14.425Z,3
2022-11-16T13:58:14.429Z,3
2022-11-16T13:59:14.453Z,3
2022-11-16T14:00:20.930Z,2
2022-11-16T14:01:14.517Z,2
2022-11-16T14:02:14.438Z,4
2022-11-16T14:03:14.440Z,2
2022-11-16T14:04:14.437Z,4
2022-11-16T14:05:14.432Z,4
2022-11-16T14:06:14.448Z,3
2022-11-16T14:07:14.514Z,2
2022-11-16T14:08:14.447Z,2
2022-11-16T14:09:14.446Z,2
2022-11-16T14:10:14.434Z,2
2022-11-16T14:11:14.452Z,4
2022-11-16T14:12:14.436Z,2
2022-11-16T14:13:14.429Z,5
2022-11-16T14:14:14.437Z,3
2022-11-16T14:16:14.431Z,3
2022-11-16T14:17:14.586Z,5
2022-11-16T14:18:14.439Z,5
2022-11-16T14:19:14.431Z,5
2022-11-16T14:20:17.142Z,5
2022-11-16T14:21:14.431Z,4
2022-11-16T14:22:14.439Z,4
2022-11-16T14:23:14.443Z,4
2022-11-16T14:24:14.446Z,4
2022-11-16T14:25:14.445Z,3
2022-11-16T14:26:14.446Z,7
2022-11-16T14:27:14.440Z,4
2022-11-16T14:28:14.443Z,4
2022-11-16T14:29:14.501Z,4
2022-11-16T14:30:14.445Z,4
2022-11-16T14:31:14.437Z,4
2022-11-16T14:32:14.439Z,4
2022-11-16T14:33:14.435Z,3
2022-11-16T14:34:14.433Z,5
2022-11-16T14:35:14.447Z,4
2022-11-16T14:36:14.504Z,4
2022-11-16T14:37:14.434Z,4
2022-11-16T14:38:14.433Z,5
2022-11-16T14:39:14.448Z,5
2022-11-16T14:40:14.448Z,3
2022-11-16T14:41:14.447Z,3
2022-11-16T14:42:14.449Z,4
2022-11-16T14:43:17.241Z,4
2022-11-16T14:44:14.430Z,5
2022-11-16T14:45:14.443Z,4
2022-11-16T14:46:14.445Z,3
2022-11-16T14:47:14.483Z,3
2022-11-16T14:48:14.531Z,5
2022-11-16T14:49:14.459Z,5
2022-11-16T14:50:14.446Z,5
2022-11-16T14:51:14.433Z,4
2022-11-16T14:52:14.433Z,4
2022-11-16T14:53:14.443Z,3
2022-11-16T14:54:14.433Z,4
2022-11-16T14:55:14.468Z,4
2022-11-16T14:56:14.466Z,3
2022-11-16T14:57:14.436Z,5
2022-11-16T14:58:14.450Z,5
2022-11-16T14:59:14.454Z,4
2022-11-16T15:01:14.438Z,6
2022-11-16T15:02:14.438Z,6
2022-11-16T15:03:14.480Z,3
2022-11-16T15:04:14.456Z,5
2022-11-16T15:05:14.442Z,4
2022-11-16T15:06:14.446Z,4
2022-11-16T15:07:14.544Z,5
2022-11-16T15:09:14.451Z,4